sensor_id;sensor_type;location;lat;lon;timestamp;P1;durP1;ratioP1;P2;durP2;ratioP2
65047;SDS011;52089;51.362;-2.384;2022-07-10T00:01:15;2.10;;;0.40;;
65047;SDS011;52089;51.362;-2.384;2022-07-10T00:04:57;0.80;;;0.40;;
65047;SDS011;52089;51.362;-2.384;2022-07-10T00:08:39;2.10;;;0.47;;
65047;SDS011;52089;51.362;-2.384;2022-07-10T00:12:21;1.10;;;0.40;;
65047;SDS011;52089;51.362;-2.384;2022-07-10T00:16:03;4.07;;;0.33;;
65047;SDS011;52089;51.362;-2.384;2022-07-10T00:19:45;0.50;;;0.30;;
65047;SDS011;52089;51.362;-2.384;2022-07-10T00:23:27;1.43;;;0.30;;
65047;SDS011;52089;51.362;-2.384;2022-07-10T00:27:09;1.07;;;0.40;;
65047;SDS011;52089;51.362;-2.384;2022-07-10T00:30:51;2.40;;;0.40;;
65047;SDS011;52089;51.362;-2.384;2022-07-10T00:34:33;0.80;;;0.30;;
65047;SDS011;52089;51.362;-2.384;2022-07-10T00:38:16;1.50;;;0.50;;
65047;SDS011;52089;51.362;-2.384;2022-07-10T00:42:10;0.63;;;0.30;;
65047;SDS011;52089;51.362;-2.384;2022-07-10T00:45:54;1.97;;;0.40;;
65047;SDS011;52089;51.362;-2.384;2022-07-10T00:49:37;0.73;;;0.40;;
65047;SDS011;52089;51.362;-2.384;2022-07-10T00:53:19;1.37;;;0.60;;
65047;SDS011;52089;51.362;-2.384;2022-07-10T00:57:02;0.53;;;0.30;;
65047;SDS011;52089;51.362;-2.384;2022-07-10T01:00:46;1.30;;;0.20;;
65047;SDS011;52089;51.362;-2.384;2022-07-10T01:04:29;2.13;;;0.30;;
65047;SDS011;52089;51.362;-2.384;2022-07-10T01:08:12;1.97;;;0.60;;
65047;SDS011;52089;51.362;-2.384;2022-07-10T01:11:54;0.73;;;0.40;;
65047;SDS011;52089;51.362;-2.384;2022-07-10T01:15:39;1.40;;;0.50;;
65047;SDS011;52089;51.362;-2.384;2022-07-10T01:19:21;1.00;;;0.50;;
65047;SDS011;52089;51.362;-2.384;2022-07-10T01:23:03;1.07;;;0.37;;
65047;SDS011;52089;51.362;-2.384;2022-07-10T01:26:45;1.10;;;0.40;;
65047;SDS011;52089;51.362;-2.384;2022-07-10T01:30:27;1.37;;;0.50;;
65047;SDS011;52089;51.362;-2.384;2022-07-10T01:34:09;0.97;;;0.40;;
65047;SDS011;52089;51.362;-2.384;2022-07-10T01:37:51;0.63;;;0.53;;
65047;SDS011;52089;51.362;-2.384;2022-07-10T01:41:33;0.53;;;0.40;;
65047;SDS011;52089;51.362;-2.384;2022-07-10T01:45:16;2.27;;;0.47;;
65047;SDS011;52089;51.362;-2.384;2022-07-10T01:48:59;0.80;;;0.40;;
65047;SDS011;52089;51.362;-2.384;2022-07-10T01:52:41;1.47;;;0.60;;
65047;SDS011;52089;51.362;-2.384;2022-07-10T01:56:23;0.70;;;0.40;;
65047;SDS011;52089;51.362;-2.384;2022-07-10T02:00:05;0.50;;;0.40;;
65047;SDS011;52089;51.362;-2.384;2022-07-10T02:03:49;1.10;;;0.37;;
65047;SDS011;52089;51.362;-2.384;2022-07-10T02:07:49;1.25;;;0.50;;
65047;SDS011;52089;51.362;-2.384;2022-07-10T02:11:31;0.83;;;0.40;;
65047;SDS011;52089;51.362;-2.384;2022-07-10T02:15:12;1.20;;;0.50;;
65047;SDS011;52089;51.362;-2.384;2022-07-10T02:18:54;0.40;;;0.30;;
65047;SDS011;52089;51.362;-2.384;2022-07-10T02:22:36;1.10;;;0.53;;
65047;SDS011;52089;51.362;-2.384;2022-07-10T02:26:18;2.33;;;0.50;;
65047;SDS011;52089;51.362;-2.384;2022-07-10T02:30:00;1.10;;;0.50;;
65047;SDS011;52089;51.362;-2.384;2022-07-10T02:33:42;1.17;;;0.43;;
65047;SDS011;52089;51.362;-2.384;2022-07-10T02:37:24;0.93;;;0.50;;
65047;SDS011;52089;51.362;-2.384;2022-07-10T02:41:06;1.70;;;0.57;;
65047;SDS011;52089;51.362;-2.384;2022-07-10T02:44:48;1.47;;;0.50;;
65047;SDS011;52089;51.362;-2.384;2022-07-10T02:48:30;1.37;;;0.50;;
65047;SDS011;52089;51.362;-2.384;2022-07-10T02:52:12;0.93;;;0.60;;
65047;SDS011;52089;51.362;-2.384;2022-07-10T02:55:54;1.27;;;0.50;;
65047;SDS011;52089;51.362;-2.384;2022-07-10T02:59:36;1.50;;;0.60;;
65047;SDS011;52089;51.362;-2.384;2022-07-10T03:03:18;2.17;;;0.60;;
65047;SDS011;52089;51.362;-2.384;2022-07-10T03:07:00;1.00;;;0.60;;
65047;SDS011;52089;51.362;-2.384;2022-07-10T03:10:42;1.43;;;0.60;;
65047;SDS011;52089;51.362;-2.384;2022-07-10T03:14:24;2.03;;;0.60;;
65047;SDS011;52089;51.362;-2.384;2022-07-10T03:18:06;2.33;;;0.70;;
65047;SDS011;52089;51.362;-2.384;2022-07-10T03:21:48;1.97;;;0.80;;
65047;SDS011;52089;51.362;-2.384;2022-07-10T03:25:30;1.07;;;0.60;;
65047;SDS011;52089;51.362;-2.384;2022-07-10T03:29:12;2.20;;;0.80;;
65047;SDS011;52089;51.362;-2.384;2022-07-10T03:32:53;1.67;;;0.80;;
65047;SDS011;52089;51.362;-2.384;2022-07-10T03:36:35;1.43;;;0.60;;
65047;SDS011;52089;51.362;-2.384;2022-07-10T03:40:17;1.87;;;0.80;;
65047;SDS011;52089;51.362;-2.384;2022-07-10T03:43:59;1.00;;;0.70;;
65047;SDS011;52089;51.362;-2.384;2022-07-10T03:47:42;1.93;;;0.90;;
65047;SDS011;52089;51.362;-2.384;2022-07-10T03:51:23;1.10;;;0.80;;
65047;SDS011;52089;51.362;-2.384;2022-07-10T03:55:06;1.10;;;0.87;;
65047;SDS011;52089;51.362;-2.384;2022-07-10T03:58:48;1.33;;;0.97;;
65047;SDS011;52089;51.362;-2.384;2022-07-10T04:02:30;1.53;;;1.00;;
65047;SDS011;52089;51.362;-2.384;2022-07-10T04:06:12;1.70;;;0.83;;
65047;SDS011;52089;51.362;-2.384;2022-07-10T04:09:54;1.40;;;0.90;;
65047;SDS011;52089;51.362;-2.384;2022-07-10T04:13:36;2.13;;;1.00;;
65047;SDS011;52089;51.362;-2.384;2022-07-10T04:17:18;1.77;;;0.80;;
65047;SDS011;52089;51.362;-2.384;2022-07-10T04:21:00;1.80;;;1.00;;
65047;SDS011;52089;51.362;-2.384;2022-07-10T04:24:42;2.30;;;1.00;;
65047;SDS011;52089;51.362;-2.384;2022-07-10T04:28:24;2.10;;;1.00;;
65047;SDS011;52089;51.362;-2.384;2022-07-10T04:32:05;1.77;;;0.87;;
65047;SDS011;52089;51.362;-2.384;2022-07-10T04:35:48;1.27;;;0.83;;
65047;SDS011;52089;51.362;-2.384;2022-07-10T04:39:29;3.73;;;1.23;;
65047;SDS011;52089;51.362;-2.384;2022-07-10T04:43:11;1.87;;;0.70;;
65047;SDS011;52089;51.362;-2.384;2022-07-10T04:46:53;2.90;;;0.97;;
65047;SDS011;52089;51.362;-2.384;2022-07-10T04:50:35;2.17;;;0.83;;
65047;SDS011;52089;51.362;-2.384;2022-07-10T04:54:17;2.70;;;1.27;;
65047;SDS011;52089;51.362;-2.384;2022-07-10T04:57:59;4.47;;;1.30;;
65047;SDS011;52089;51.362;-2.384;2022-07-10T05:01:41;1.90;;;1.60;;
65047;SDS011;52089;51.362;-2.384;2022-07-10T05:05:23;3.37;;;1.80;;
65047;SDS011;52089;51.362;-2.384;2022-07-10T05:09:05;4.33;;;1.80;;
65047;SDS011;52089;51.362;-2.384;2022-07-10T05:12:46;3.97;;;2.00;;
65047;SDS011;52089;51.362;-2.384;2022-07-10T05:16:28;2.97;;;2.20;;
65047;SDS011;52089;51.362;-2.384;2022-07-10T05:20:10;3.70;;;2.50;;
65047;SDS011;52089;51.362;-2.384;2022-07-10T05:23:52;4.37;;;2.50;;
65047;SDS011;52089;51.362;-2.384;2022-07-10T05:27:34;2.70;;;2.30;;
65047;SDS011;52089;51.362;-2.384;2022-07-10T05:31:16;3.10;;;2.40;;
65047;SDS011;52089;51.362;-2.384;2022-07-10T05:34:58;3.10;;;2.70;;
65047;SDS011;52089;51.362;-2.384;2022-07-10T05:38:40;3.40;;;2.93;;
65047;SDS011;52089;51.362;-2.384;2022-07-10T05:42:22;3.77;;;3.37;;
65047;SDS011;52089;51.362;-2.384;2022-07-10T05:46:04;3.60;;;2.80;;
65047;SDS011;52089;51.362;-2.384;2022-07-10T05:49:47;4.07;;;3.17;;
65047;SDS011;52089;51.362;-2.384;2022-07-10T05:53:29;4.23;;;3.60;;
65047;SDS011;52089;51.362;-2.384;2022-07-10T05:57:11;3.97;;;3.37;;
65047;SDS011;52089;51.362;-2.384;2022-07-10T06:00:52;5.27;;;3.90;;
65047;SDS011;52089;51.362;-2.384;2022-07-10T06:04:34;5.53;;;4.33;;
65047;SDS011;52089;51.362;-2.384;2022-07-10T06:08:16;12.67;;;5.20;;
65047;SDS011;52089;51.362;-2.384;2022-07-10T06:11:59;5.27;;;4.30;;
65047;SDS011;52089;51.362;-2.384;2022-07-10T06:15:41;5.20;;;3.97;;
65047;SDS011;52089;51.362;-2.384;2022-07-10T06:19:23;4.63;;;4.13;;
65047;SDS011;52089;51.362;-2.384;2022-07-10T06:23:04;6.40;;;4.90;;
65047;SDS011;52089;51.362;-2.384;2022-07-10T06:26:46;5.27;;;4.40;;
65047;SDS011;52089;51.362;-2.384;2022-07-10T06:30:28;4.47;;;3.90;;
65047;SDS011;52089;51.362;-2.384;2022-07-10T06:34:10;4.27;;;3.80;;
65047;SDS011;52089;51.362;-2.384;2022-07-10T06:37:52;5.20;;;4.50;;
65047;SDS011;52089;51.362;-2.384;2022-07-10T06:41:34;6.00;;;4.57;;
65047;SDS011;52089;51.362;-2.384;2022-07-10T06:45:15;4.80;;;4.30;;
65047;SDS011;52089;51.362;-2.384;2022-07-10T06:48:58;5.27;;;4.40;;
65047;SDS011;52089;51.362;-2.384;2022-07-10T06:52:40;5.13;;;4.60;;
65047;SDS011;52089;51.362;-2.384;2022-07-10T06:56:22;4.57;;;4.13;;
65047;SDS011;52089;51.362;-2.384;2022-07-10T07:00:04;5.20;;;4.10;;
65047;SDS011;52089;51.362;-2.384;2022-07-10T07:03:47;4.60;;;3.90;;
65047;SDS011;52089;51.362;-2.384;2022-07-10T07:07:28;4.77;;;3.87;;
65047;SDS011;52089;51.362;-2.384;2022-07-10T07:11:10;5.70;;;3.77;;
65047;SDS011;52089;51.362;-2.384;2022-07-10T07:14:52;4.50;;;3.77;;
65047;SDS011;52089;51.362;-2.384;2022-07-10T07:18:34;4.40;;;3.80;;
65047;SDS011;52089;51.362;-2.384;2022-07-10T07:22:20;5.17;;;3.77;;
65047;SDS011;52089;51.362;-2.384;2022-07-10T07:26:21;5.47;;;3.67;;
65047;SDS011;52089;51.362;-2.384;2022-07-10T07:30:08;3.57;;;3.20;;
65047;SDS011;52089;51.362;-2.384;2022-07-10T07:33:52;3.63;;;3.10;;
65047;SDS011;52089;51.362;-2.384;2022-07-10T07:37:34;4.00;;;3.00;;
65047;SDS011;52089;51.362;-2.384;2022-07-10T07:41:20;3.67;;;2.93;;
65047;SDS011;52089;51.362;-2.384;2022-07-10T07:45:04;3.77;;;3.13;;
65047;SDS011;52089;51.362;-2.384;2022-07-10T07:48:46;3.50;;;3.20;;
65047;SDS011;52089;51.362;-2.384;2022-07-10T07:52:28;5.27;;;3.63;;
65047;SDS011;52089;51.362;-2.384;2022-07-10T07:56:12;3.63;;;3.33;;
65047;SDS011;52089;51.362;-2.384;2022-07-10T07:59:54;3.23;;;2.73;;
65047;SDS011;52089;51.362;-2.384;2022-07-10T08:03:36;3.80;;;3.40;;
65047;SDS011;52089;51.362;-2.384;2022-07-10T08:07:39;4.00;;;2.70;;
65047;SDS011;52089;51.362;-2.384;2022-07-10T08:11:22;3.30;;;2.73;;
65047;SDS011;52089;51.362;-2.384;2022-07-10T08:15:05;4.80;;;3.10;;
65047;SDS011;52089;51.362;-2.384;2022-07-10T08:18:49;5.20;;;3.50;;
65047;SDS011;52089;51.362;-2.384;2022-07-10T08:22:32;3.50;;;2.90;;
65047;SDS011;52089;51.362;-2.384;2022-07-10T08:26:14;3.17;;;2.67;;
65047;SDS011;52089;51.362;-2.384;2022-07-10T08:29:56;3.80;;;2.67;;
65047;SDS011;52089;51.362;-2.384;2022-07-10T08:33:38;4.07;;;2.63;;
65047;SDS011;52089;51.362;-2.384;2022-07-10T08:37:20;3.30;;;2.77;;
65047;SDS011;52089;51.362;-2.384;2022-07-10T08:41:02;7.07;;;4.33;;
65047;SDS011;52089;51.362;-2.384;2022-07-10T08:44:47;3.20;;;2.80;;
65047;SDS011;52089;51.362;-2.384;2022-07-10T08:48:29;2.93;;;2.47;;
65047;SDS011;52089;51.362;-2.384;2022-07-10T08:56:00;4.15;;;2.17;;
65047;SDS011;52089;51.362;-2.384;2022-07-10T08:59:42;3.33;;;2.40;;
65047;SDS011;52089;51.362;-2.384;2022-07-10T09:03:24;2.60;;;2.38;;
65047;SDS011;52089;51.362;-2.384;2022-07-10T09:07:05;3.10;;;2.55;;
65047;SDS011;52089;51.362;-2.384;2022-07-10T09:10:47;16.00;;;14.38;;
65047;SDS011;52089;51.362;-2.384;2022-07-10T09:14:29;3.40;;;2.60;;
65047;SDS011;52089;51.362;-2.384;2022-07-10T09:18:18;2.40;;;2.08;;
65047;SDS011;52089;51.362;-2.384;2022-07-10T09:22:07;2.25;;;1.80;;
65047;SDS011;52089;51.362;-2.384;2022-07-10T09:25:50;3.55;;;2.03;;
65047;SDS011;52089;51.362;-2.384;2022-07-10T09:29:47;2.25;;;1.65;;
65047;SDS011;52089;51.362;-2.384;2022-07-10T09:33:31;4.80;;;1.58;;
65047;SDS011;52089;51.362;-2.384;2022-07-10T09:41:11;1.92;;;1.50;;
65047;SDS011;52089;51.362;-2.384;2022-07-10T09:49:04;2.85;;;1.38;;
65047;SDS011;52089;51.362;-2.384;2022-07-10T09:52:57;3.60;;;1.58;;
65047;SDS011;52089;51.362;-2.384;2022-07-10T10:00:33;3.08;;;1.50;;
65047;SDS011;52089;51.362;-2.384;2022-07-10T10:04:19;2.17;;;1.58;;
65047;SDS011;52089;51.362;-2.384;2022-07-10T10:08:16;4.87;;;2.60;;
65047;SDS011;52089;51.362;-2.384;2022-07-10T10:12:16;2.15;;;1.20;;
65047;SDS011;52089;51.362;-2.384;2022-07-10T10:16:10;1.35;;;0.90;;
65047;SDS011;52089;51.362;-2.384;2022-07-10T10:19:53;1.42;;;1.02;;
65047;SDS011;52089;51.362;-2.384;2022-07-10T10:23:55;1.35;;;1.00;;
65047;SDS011;52089;51.362;-2.384;2022-07-10T10:27:37;1.88;;;1.00;;
65047;SDS011;52089;51.362;-2.384;2022-07-10T10:31:20;1.60;;;0.95;;
65047;SDS011;52089;51.362;-2.384;2022-07-10T10:35:03;1.65;;;0.73;;
65047;SDS011;52089;51.362;-2.384;2022-07-10T10:42:43;1.20;;;0.88;;
65047;SDS011;52089;51.362;-2.384;2022-07-10T10:46:25;1.10;;;0.60;;
65047;SDS011;52089;51.362;-2.384;2022-07-10T10:50:07;1.33;;;0.80;;
65047;SDS011;52089;51.362;-2.384;2022-07-10T10:54:03;1.20;;;0.80;;
65047;SDS011;52089;51.362;-2.384;2022-07-10T10:57:46;1.45;;;0.77;;
65047;SDS011;52089;51.362;-2.384;2022-07-10T11:01:33;1.27;;;0.80;;
65047;SDS011;52089;51.362;-2.384;2022-07-10T11:09:00;2.53;;;0.90;;
65047;SDS011;52089;51.362;-2.384;2022-07-10T11:13:05;2.00;;;0.80;;
65047;SDS011;52089;51.362;-2.384;2022-07-10T11:16:55;1.00;;;0.80;;
65047;SDS011;52089;51.362;-2.384;2022-07-10T11:20:38;1.13;;;0.60;;
65047;SDS011;52089;51.362;-2.384;2022-07-10T11:24:39;2.45;;;0.90;;
65047;SDS011;52089;51.362;-2.384;2022-07-10T11:32:25;1.20;;;0.70;;
65047;SDS011;52089;51.362;-2.384;2022-07-10T11:36:10;1.23;;;0.73;;
65047;SDS011;52089;51.362;-2.384;2022-07-10T11:40:10;2.70;;;0.70;;
65047;SDS011;52089;51.362;-2.384;2022-07-10T11:43:54;1.15;;;0.75;;
65047;SDS011;52089;51.362;-2.384;2022-07-10T11:47:40;3.65;;;1.02;;
65047;SDS011;52089;51.362;-2.384;2022-07-10T11:55:14;1.00;;;0.70;;
65047;SDS011;52089;51.362;-2.384;2022-07-10T11:59:03;1.50;;;0.88;;
65047;SDS011;52089;51.362;-2.384;2022-07-10T12:02:47;1.63;;;0.77;;
65047;SDS011;52089;51.362;-2.384;2022-07-10T12:06:29;2.33;;;0.70;;
65047;SDS011;52089;51.362;-2.384;2022-07-10T12:10:12;1.25;;;0.73;;
65047;SDS011;52089;51.362;-2.384;2022-07-10T12:13:54;0.75;;;0.70;;
65047;SDS011;52089;51.362;-2.384;2022-07-10T12:17:58;0.73;;;0.50;;
65047;SDS011;52089;51.362;-2.384;2022-07-10T12:21:41;2.50;;;0.70;;
65047;SDS011;52089;51.362;-2.384;2022-07-10T12:25:24;1.10;;;0.57;;
65047;SDS011;52089;51.362;-2.384;2022-07-10T12:29:10;2.83;;;0.60;;
65047;SDS011;52089;51.362;-2.384;2022-07-10T12:33:05;1.40;;;0.70;;
65047;SDS011;52089;51.362;-2.384;2022-07-10T12:36:58;0.82;;;0.60;;
65047;SDS011;52089;51.362;-2.384;2022-07-10T12:40:40;1.17;;;0.52;;
65047;SDS011;52089;51.362;-2.384;2022-07-10T12:44:35;4.13;;;0.70;;
65047;SDS011;52089;51.362;-2.384;2022-07-10T12:48:24;1.23;;;0.50;;
65047;SDS011;52089;51.362;-2.384;2022-07-10T12:52:18;0.75;;;0.50;;
65047;SDS011;52089;51.362;-2.384;2022-07-10T12:56:07;1.60;;;0.60;;
65047;SDS011;52089;51.362;-2.384;2022-07-10T12:59:50;0.98;;;0.52;;
65047;SDS011;52089;51.362;-2.384;2022-07-10T13:03:32;0.73;;;0.50;;
65047;SDS011;52089;51.362;-2.384;2022-07-10T13:07:15;3.60;;;0.50;;
65047;SDS011;52089;51.362;-2.384;2022-07-10T13:10:58;0.77;;;0.50;;
65047;SDS011;52089;51.362;-2.384;2022-07-10T13:14:40;0.30;;;0.30;;
65047;SDS011;52089;51.362;-2.384;2022-07-10T13:18:23;0.88;;;0.40;;
65047;SDS011;52089;51.362;-2.384;2022-07-10T13:22:06;1.50;;;0.50;;
65047;SDS011;52089;51.362;-2.384;2022-07-10T13:25:53;0.63;;;0.50;;
65047;SDS011;52089;51.362;-2.384;2022-07-10T13:29:40;1.20;;;0.50;;
65047;SDS011;52089;51.362;-2.384;2022-07-10T13:33:22;0.60;;;0.50;;
65047;SDS011;52089;51.362;-2.384;2022-07-10T13:37:07;0.60;;;0.50;;
65047;SDS011;52089;51.362;-2.384;2022-07-10T13:40:48;0.55;;;0.50;;
65047;SDS011;52089;51.362;-2.384;2022-07-10T13:44:30;0.75;;;0.50;;
65047;SDS011;52089;51.362;-2.384;2022-07-10T13:48:13;0.63;;;0.45;;
65047;SDS011;52089;51.362;-2.384;2022-07-10T13:51:56;0.43;;;0.40;;
65047;SDS011;52089;51.362;-2.384;2022-07-10T13:55:38;0.55;;;0.45;;
65047;SDS011;52089;51.362;-2.384;2022-07-10T13:59:20;1.20;;;0.60;;
65047;SDS011;52089;51.362;-2.384;2022-07-10T14:03:02;0.77;;;0.50;;
65047;SDS011;52089;51.362;-2.384;2022-07-10T14:06:45;1.45;;;0.43;;
65047;SDS011;52089;51.362;-2.384;2022-07-10T14:10:27;0.88;;;0.50;;
65047;SDS011;52089;51.362;-2.384;2022-07-10T14:14:09;1.05;;;0.60;;
65047;SDS011;52089;51.362;-2.384;2022-07-10T14:17:52;0.68;;;0.50;;
65047;SDS011;52089;51.362;-2.384;2022-07-10T14:21:34;1.27;;;0.60;;
65047;SDS011;52089;51.362;-2.384;2022-07-10T14:25:16;0.60;;;0.60;;
65047;SDS011;52089;51.362;-2.384;2022-07-10T14:29:00;0.50;;;0.50;;
65047;SDS011;52089;51.362;-2.384;2022-07-10T14:32:43;1.88;;;0.60;;
65047;SDS011;52089;51.362;-2.384;2022-07-10T14:36:25;1.30;;;0.70;;
65047;SDS011;52089;51.362;-2.384;2022-07-10T14:40:09;0.90;;;0.60;;
65047;SDS011;52089;51.362;-2.384;2022-07-10T14:43:51;2.15;;;0.60;;
65047;SDS011;52089;51.362;-2.384;2022-07-10T14:47:33;0.68;;;0.60;;
65047;SDS011;52089;51.362;-2.384;2022-07-10T14:51:15;1.05;;;0.55;;
65047;SDS011;52089;51.362;-2.384;2022-07-10T14:55:05;0.60;;;0.50;;
65047;SDS011;52089;51.362;-2.384;2022-07-10T14:58:49;0.60;;;0.50;;
65047;SDS011;52089;51.362;-2.384;2022-07-10T15:02:51;1.10;;;0.55;;
65047;SDS011;52089;51.362;-2.384;2022-07-10T15:06:33;0.50;;;0.40;;
65047;SDS011;52089;51.362;-2.384;2022-07-10T15:10:14;0.60;;;0.50;;
65047;SDS011;52089;51.362;-2.384;2022-07-10T15:13:57;0.85;;;0.60;;
65047;SDS011;52089;51.362;-2.384;2022-07-10T15:17:42;0.60;;;0.50;;
65047;SDS011;52089;51.362;-2.384;2022-07-10T15:21:25;3.33;;;0.55;;
65047;SDS011;52089;51.362;-2.384;2022-07-10T15:25:08;1.70;;;0.70;;
65047;SDS011;52089;51.362;-2.384;2022-07-10T15:28:50;1.20;;;0.50;;
65047;SDS011;52089;51.362;-2.384;2022-07-10T15:32:32;1.77;;;0.60;;
65047;SDS011;52089;51.362;-2.384;2022-07-10T15:36:14;1.10;;;0.60;;
65047;SDS011;52089;51.362;-2.384;2022-07-10T15:39:56;0.77;;;0.50;;
65047;SDS011;52089;51.362;-2.384;2022-07-10T15:43:38;0.65;;;0.50;;
65047;SDS011;52089;51.362;-2.384;2022-07-10T15:47:21;1.90;;;0.50;;
65047;SDS011;52089;51.362;-2.384;2022-07-10T15:51:02;1.15;;;0.60;;
65047;SDS011;52089;51.362;-2.384;2022-07-10T15:54:44;1.10;;;0.57;;
65047;SDS011;52089;51.362;-2.384;2022-07-10T15:58:26;1.40;;;0.80;;
65047;SDS011;52089;51.362;-2.384;2022-07-10T16:02:08;1.13;;;0.60;;
65047;SDS011;52089;51.362;-2.384;2022-07-10T16:05:52;0.55;;;0.50;;
65047;SDS011;52089;51.362;-2.384;2022-07-10T16:09:34;0.63;;;0.50;;
65047;SDS011;52089;51.362;-2.384;2022-07-10T16:13:16;0.85;;;0.50;;
65047;SDS011;52089;51.362;-2.384;2022-07-10T16:16:58;2.65;;;0.60;;
65047;SDS011;52089;51.362;-2.384;2022-07-10T16:20:41;0.60;;;0.50;;
65047;SDS011;52089;51.362;-2.384;2022-07-10T16:24:23;0.77;;;0.60;;
65047;SDS011;52089;51.362;-2.384;2022-07-10T16:28:05;0.80;;;0.60;;
65047;SDS011;52089;51.362;-2.384;2022-07-10T16:31:47;1.25;;;0.80;;
65047;SDS011;52089;51.362;-2.384;2022-07-10T16:35:29;1.63;;;1.00;;
65047;SDS011;52089;51.362;-2.384;2022-07-10T16:39:11;1.73;;;1.13;;
65047;SDS011;52089;51.362;-2.384;2022-07-10T16:42:56;1.40;;;0.90;;
65047;SDS011;52089;51.362;-2.384;2022-07-10T16:46:38;2.63;;;0.90;;
65047;SDS011;52089;51.362;-2.384;2022-07-10T16:50:21;2.53;;;0.93;;
65047;SDS011;52089;51.362;-2.384;2022-07-10T16:54:03;1.52;;;0.73;;
65047;SDS011;52089;51.362;-2.384;2022-07-10T16:57:58;9.25;;;4.70;;
65047;SDS011;52089;51.362;-2.384;2022-07-10T17:01:40;3.92;;;1.20;;
65047;SDS011;52089;51.362;-2.384;2022-07-10T17:05:22;4.30;;;1.63;;
65047;SDS011;52089;51.362;-2.384;2022-07-10T17:09:03;2.65;;;1.27;;
65047;SDS011;52089;51.362;-2.384;2022-07-10T17:12:45;3.65;;;1.48;;
65047;SDS011;52089;51.362;-2.384;2022-07-10T17:16:28;7.47;;;2.58;;
65047;SDS011;52089;51.362;-2.384;2022-07-10T17:20:10;2.63;;;1.30;;
65047;SDS011;52089;51.362;-2.384;2022-07-10T17:23:52;1.45;;;1.08;;
65047;SDS011;52089;51.362;-2.384;2022-07-10T17:27:34;0.68;;;0.50;;
65047;SDS011;52089;51.362;-2.384;2022-07-10T17:31:16;1.40;;;0.77;;
65047;SDS011;52089;51.362;-2.384;2022-07-10T17:34:58;1.55;;;0.60;;
65047;SDS011;52089;51.362;-2.384;2022-07-10T17:38:40;1.40;;;0.90;;
65047;SDS011;52089;51.362;-2.384;2022-07-10T17:42:21;1.55;;;0.70;;
65047;SDS011;52089;51.362;-2.384;2022-07-10T17:46:03;2.03;;;0.73;;
65047;SDS011;52089;51.362;-2.384;2022-07-10T17:49:45;2.65;;;0.90;;
65047;SDS011;52089;51.362;-2.384;2022-07-10T17:53:30;1.50;;;0.57;;
65047;SDS011;52089;51.362;-2.384;2022-07-10T17:57:12;1.67;;;0.73;;
65047;SDS011;52089;51.362;-2.384;2022-07-10T18:00:57;2.92;;;0.70;;
65047;SDS011;52089;51.362;-2.384;2022-07-10T18:04:39;2.65;;;0.90;;
65047;SDS011;52089;51.362;-2.384;2022-07-10T18:08:21;0.68;;;0.43;;
65047;SDS011;52089;51.362;-2.384;2022-07-10T18:12:05;2.22;;;0.70;;
65047;SDS011;52089;51.362;-2.384;2022-07-10T18:15:47;1.98;;;0.85;;
65047;SDS011;52089;51.362;-2.384;2022-07-10T18:19:28;1.13;;;0.40;;
65047;SDS011;52089;51.362;-2.384;2022-07-10T18:23:10;0.32;;;0.30;;
65047;SDS011;52089;51.362;-2.384;2022-07-10T18:26:52;0.80;;;0.57;;
65047;SDS011;52089;51.362;-2.384;2022-07-10T18:30:34;1.27;;;0.50;;
65047;SDS011;52089;51.362;-2.384;2022-07-10T18:34:16;0.38;;;0.30;;
65047;SDS011;52089;51.362;-2.384;2022-07-10T18:38:11;0.47;;;0.40;;
65047;SDS011;52089;51.362;-2.384;2022-07-10T18:41:54;0.40;;;0.30;;
65047;SDS011;52089;51.362;-2.384;2022-07-10T18:45:35;0.68;;;0.40;;
65047;SDS011;52089;51.362;-2.384;2022-07-10T18:49:17;1.75;;;0.40;;
65047;SDS011;52089;51.362;-2.384;2022-07-10T18:53:00;1.85;;;0.40;;
65047;SDS011;52089;51.362;-2.384;2022-07-10T18:56:41;0.65;;;0.40;;
65047;SDS011;52089;51.362;-2.384;2022-07-10T19:00:23;0.50;;;0.30;;
65047;SDS011;52089;51.362;-2.384;2022-07-10T19:04:05;1.45;;;0.60;;
65047;SDS011;52089;51.362;-2.384;2022-07-10T19:07:47;4.38;;;3.42;;
65047;SDS011;52089;51.362;-2.384;2022-07-10T19:11:29;1.20;;;0.80;;
65047;SDS011;52089;51.362;-2.384;2022-07-10T19:15:11;1.27;;;0.93;;
65047;SDS011;52089;51.362;-2.384;2022-07-10T19:18:57;1.80;;;1.00;;
65047;SDS011;52089;51.362;-2.384;2022-07-10T19:22:41;1.35;;;0.95;;
65047;SDS011;52089;51.362;-2.384;2022-07-10T19:26:23;1.65;;;0.60;;
65047;SDS011;52089;51.362;-2.384;2022-07-10T19:30:06;0.95;;;0.57;;
65047;SDS011;52089;51.362;-2.384;2022-07-10T19:33:51;0.70;;;0.50;;
65047;SDS011;52089;51.362;-2.384;2022-07-10T19:37:33;0.60;;;0.40;;
65047;SDS011;52089;51.362;-2.384;2022-07-10T19:41:14;2.03;;;0.82;;
65047;SDS011;52089;51.362;-2.384;2022-07-10T19:44:58;1.38;;;0.50;;
65047;SDS011;52089;51.362;-2.384;2022-07-10T19:48:41;0.97;;;0.50;;
65047;SDS011;52089;51.362;-2.384;2022-07-10T19:52:29;2.97;;;0.87;;
65047;SDS011;52089;51.362;-2.384;2022-07-10T19:56:12;0.90;;;0.50;;
65047;SDS011;52089;51.362;-2.384;2022-07-10T19:59:55;0.87;;;0.47;;
65047;SDS011;52089;51.362;-2.384;2022-07-10T20:03:36;1.83;;;1.13;;
65047;SDS011;52089;51.362;-2.384;2022-07-10T20:07:19;2.17;;;1.57;;
65047;SDS011;52089;51.362;-2.384;2022-07-10T20:11:01;1.00;;;0.67;;
65047;SDS011;52089;51.362;-2.384;2022-07-10T20:14:43;0.60;;;0.40;;
65047;SDS011;52089;51.362;-2.384;2022-07-10T20:18:25;0.60;;;0.50;;
65047;SDS011;52089;51.362;-2.384;2022-07-10T20:22:07;1.23;;;0.50;;
65047;SDS011;52089;51.362;-2.384;2022-07-10T20:25:49;0.80;;;0.50;;
65047;SDS011;52089;51.362;-2.384;2022-07-10T20:29:31;0.57;;;0.50;;
65047;SDS011;52089;51.362;-2.384;2022-07-10T20:33:13;1.17;;;0.50;;
65047;SDS011;52089;51.362;-2.384;2022-07-10T20:36:55;0.70;;;0.50;;
65047;SDS011;52089;51.362;-2.384;2022-07-10T20:40:55;0.80;;;0.40;;
65047;SDS011;52089;51.362;-2.384;2022-07-10T20:44:37;0.90;;;0.50;;
65047;SDS011;52089;51.362;-2.384;2022-07-10T20:48:19;0.90;;;0.40;;
65047;SDS011;52089;51.362;-2.384;2022-07-10T20:52:01;1.40;;;0.50;;
65047;SDS011;52089;51.362;-2.384;2022-07-10T20:55:43;0.70;;;0.50;;
65047;SDS011;52089;51.362;-2.384;2022-07-10T20:59:25;1.03;;;0.50;;
65047;SDS011;52089;51.362;-2.384;2022-07-10T21:03:08;1.80;;;0.40;;
65047;SDS011;52089;51.362;-2.384;2022-07-10T21:06:49;0.53;;;0.50;;
65047;SDS011;52089;51.362;-2.384;2022-07-10T21:10:31;0.70;;;0.50;;
65047;SDS011;52089;51.362;-2.384;2022-07-10T21:14:22;0.60;;;0.50;;
65047;SDS011;52089;51.362;-2.384;2022-07-10T21:18:04;1.53;;;0.50;;
65047;SDS011;52089;51.362;-2.384;2022-07-10T21:21:46;0.50;;;0.40;;
65047;SDS011;52089;51.362;-2.384;2022-07-10T21:25:28;0.83;;;0.50;;
65047;SDS011;52089;51.362;-2.384;2022-07-10T21:29:11;1.00;;;0.50;;
65047;SDS011;52089;51.362;-2.384;2022-07-10T21:32:53;0.53;;;0.50;;
65047;SDS011;52089;51.362;-2.384;2022-07-10T21:36:35;1.03;;;0.50;;
65047;SDS011;52089;51.362;-2.384;2022-07-10T21:40:17;1.33;;;0.60;;
65047;SDS011;52089;51.362;-2.384;2022-07-10T21:43:59;0.80;;;0.40;;
65047;SDS011;52089;51.362;-2.384;2022-07-10T21:47:41;2.80;;;0.70;;
65047;SDS011;52089;51.362;-2.384;2022-07-10T21:51:23;1.27;;;0.83;;
65047;SDS011;52089;51.362;-2.384;2022-07-10T21:55:05;1.17;;;0.60;;
65047;SDS011;52089;51.362;-2.384;2022-07-10T21:58:47;2.47;;;0.50;;
65047;SDS011;52089;51.362;-2.384;2022-07-10T22:02:29;2.10;;;0.67;;
65047;SDS011;52089;51.362;-2.384;2022-07-10T22:06:11;1.00;;;0.53;;
65047;SDS011;52089;51.362;-2.384;2022-07-10T22:09:53;2.13;;;0.70;;
65047;SDS011;52089;51.362;-2.384;2022-07-10T22:13:35;1.47;;;0.63;;
65047;SDS011;52089;51.362;-2.384;2022-07-10T22:17:16;1.73;;;0.83;;
65047;SDS011;52089;51.362;-2.384;2022-07-10T22:20:58;1.17;;;0.70;;
65047;SDS011;52089;51.362;-2.384;2022-07-10T22:24:40;1.27;;;0.80;;
65047;SDS011;52089;51.362;-2.384;2022-07-10T22:28:22;1.50;;;0.87;;
65047;SDS011;52089;51.362;-2.384;2022-07-10T22:32:04;1.20;;;0.80;;
65047;SDS011;52089;51.362;-2.384;2022-07-10T22:35:47;4.13;;;1.00;;